createdAt,value
2023-03-06T00:00:22.325Z,83.38
2023-03-06T00:03:22.737Z,82.63
2023-03-06T00:13:43.254Z,82.02
2023-03-06T00:17:03.909Z,81.05
2023-03-06T00:19:56.607Z,81.79
2023-03-06T00:23:14.174Z,81.67
2023-03-06T00:26:18.602Z,82.63
2023-03-06T00:29:09.427Z,83.09
2023-03-06T00:32:10.241Z,82.71
2023-03-06T00:35:08.767Z,83.18
2023-03-06T00:38:14.917Z,84.00
2023-03-06T00:41:26.666Z,83.14
2023-03-06T00:44:37.602Z,83.27
2023-03-06T00:48:00.123Z,83.51
2023-03-06T00:51:19.241Z,85.24
2023-03-06T00:54:14.772Z,87.64
2023-03-06T00:57:12.241Z,90.51
2023-03-06T01:00:05.617Z,87.21
2023-03-06T01:03:01.553Z,88.47
2023-03-06T01:06:14.265Z,87.59
2023-03-06T01:09:10.428Z,87.10
2023-03-06T01:12:11.108Z,86.74
2023-03-06T01:15:21.291Z,87.75
2023-03-06T01:18:50.880Z,88.18
2023-03-06T01:29:17.469Z,86.58
2023-03-06T01:32:11.952Z,85.93
2023-03-06T01:35:32.603Z,86.05
2023-03-06T01:38:49.425Z,85.76
2023-03-06T01:42:02.180Z,86.47
2023-03-06T01:45:19.102Z,87.36
2023-03-06T01:48:07.761Z,88.21
2023-03-06T01:50:54.472Z,88.09
2023-03-06T01:53:41.636Z,88.87
2023-03-06T01:56:26.835Z,88.60
2023-03-06T01:59:11.495Z,88.81
2023-03-06T02:02:03.756Z,87.61
2023-03-06T02:04:48.971Z,88.95
2023-03-06T02:07:38.137Z,88.27
2023-03-06T02:10:22.586Z,88.74
2023-03-06T02:13:09.167Z,88.11
2023-03-06T02:15:52.730Z,88.73
2023-03-06T02:18:38.616Z,88.65
2023-03-06T02:21:32.352Z,88.98
2023-03-06T02:24:39.508Z,89.14
2023-03-06T02:27:26.422Z,89.36
2023-03-06T02:30:17.043Z,89.73
2023-03-06T02:33:01.810Z,91.00
2023-03-06T02:35:56.261Z,90.85
2023-03-06T02:38:51.967Z,91.47
2023-03-06T02:41:39.560Z,92.06
2023-03-06T02:44:28.219Z,91.47
2023-03-06T02:47:12.077Z,91.95
2023-03-06T02:49:56.038Z,92.38
2023-03-06T02:52:39.764Z,92.28
2023-03-06T02:55:26.645Z,93.08
2023-03-06T02:58:12.253Z,93.63
2023-03-06T03:00:55.922Z,93.27
2023-03-06T03:03:40.354Z,92.63
2023-03-06T03:06:24.730Z,92.84
2023-03-06T03:09:08.383Z,92.94
2023-03-06T03:11:52.511Z,93.04
2023-03-06T03:14:36.273Z,93.98
2023-03-06T03:17:20.365Z,93.29
2023-03-06T03:20:15.948Z,93.53
2023-03-06T03:22:59.801Z,93.34
2023-03-06T03:25:43.912Z,93.68
2023-03-06T03:28:28.047Z,93.86
2023-03-06T03:31:12.988Z,93.91
2023-03-06T03:33:56.602Z,94.44
2023-03-06T03:36:40.866Z,94.81
2023-03-06T03:39:31.932Z,94.19
2023-03-06T03:42:15.923Z,94.30
2023-03-06T03:45:00.063Z,93.56
2023-03-06T03:47:45.135Z,92.68
2023-03-06T03:50:30.398Z,92.93
2023-03-06T03:53:14.472Z,93.96
2023-03-06T03:55:59.190Z,92.87
2023-03-06T03:58:43.581Z,93.23
2023-03-06T04:01:27.791Z,93.38
2023-03-06T04:04:12.516Z,93.35
2023-03-06T04:06:57.837Z,93.00
2023-03-06T04:09:41.871Z,93.64
2023-03-06T04:12:25.798Z,94.13
2023-03-06T04:15:10.107Z,94.35
2023-03-06T04:17:57.554Z,94.17
2023-03-06T04:20:45.879Z,93.25
2023-03-06T04:23:30.329Z,92.69
2023-03-06T04:26:14.663Z,95.46
2023-03-06T04:28:58.712Z,95.67
2023-03-06T04:31:43.307Z,95.40
2023-03-06T04:34:27.786Z,95.71
2023-03-06T04:37:21.850Z,96.43
2023-03-06T04:40:07.334Z,98.53
2023-03-06T04:42:51.540Z,100.00
2023-03-06T04:45:36.615Z,99.38
2023-03-06T04:48:20.498Z,99.01
2023-03-06T04:51:04.933Z,98.05
2023-03-06T04:53:52.631Z,99.06
2023-03-06T04:56:36.476Z,97.76
2023-03-06T04:59:21.411Z,97.36
2023-03-06T05:02:05.393Z,97.43
2023-03-06T05:04:49.832Z,97.95
2023-03-06T05:07:34.266Z,97.41
2023-03-06T05:10:19.125Z,97.56
2023-03-06T05:13:02.993Z,98.54
2023-03-06T05:15:49.858Z,98.98
2023-03-06T05:18:35.978Z,98.24
2023-03-06T05:21:20.293Z,98.07
2023-03-06T05:24:04.701Z,98.21
2023-03-06T05:26:48.367Z,98.77
2023-03-06T05:29:32.407Z,98.86
2023-03-06T05:32:17.758Z,98.48
2023-03-06T05:35:01.518Z,98.48
2023-03-06T05:37:46.764Z,97.70
2023-03-06T05:40:33.920Z,98.15
2023-03-06T05:43:18.098Z,97.78
2023-03-06T05:46:06.776Z,96.89
2023-03-06T05:48:55.534Z,98.56
2023-03-06T05:51:40.036Z,99.87
2023-03-06T05:54:24.800Z,99.95
2023-03-06T05:57:09.239Z,100.00
2023-03-06T05:59:53.225Z,99.18
2023-03-06T06:02:37.372Z,100.00
2023-03-06T06:05:21.836Z,99.68
2023-03-06T06:08:08.853Z,98.72
2023-03-06T06:10:53.578Z,97.60
2023-03-06T06:13:39.405Z,98.39
2023-03-06T06:16:26.845Z,98.83
2023-03-06T06:19:15.558Z,97.77
2023-03-06T06:22:02.602Z,98.31
2023-03-06T06:24:46.795Z,99.66
2023-03-06T06:27:34.015Z,99.92
2023-03-06T06:30:18.349Z,100.00
2023-03-06T06:33:02.371Z,99.82
2023-03-06T06:35:46.656Z,100.00
2023-03-06T06:38:30.850Z,100.00
2023-03-06T06:44:23.903Z,96.70
2023-03-06T06:47:25.360Z,97.05
2023-03-06T06:50:14.600Z,98.51
2023-03-06T06:52:58.776Z,96.94
2023-03-06T06:55:46.371Z,96.87
2023-03-06T06:58:30.101Z,97.74
2023-03-06T07:01:14.909Z,98.73
2023-03-06T07:03:59.044Z,98.60
2023-03-06T07:06:43.908Z,99.13
2023-03-06T07:09:30.310Z,99.53
2023-03-06T07:12:13.969Z,100.00
2023-03-06T07:14:57.716Z,99.62
2023-03-06T07:17:41.464Z,98.41
2023-03-06T07:20:28.424Z,99.05
2023-03-06T07:23:13.628Z,98.84
2023-03-06T07:25:58.230Z,99.47
2023-03-06T07:28:52.298Z,99.73
2023-03-06T07:31:36.958Z,99.42
2023-03-06T07:34:20.617Z,97.87
2023-03-06T07:37:04.729Z,98.65
2023-03-06T07:39:48.553Z,99.48
2023-03-06T07:42:32.677Z,99.76
2023-03-06T07:45:19.204Z,100.00
2023-03-06T07:48:05.565Z,100.00
2023-03-06T07:51:03.066Z,100.00
2023-03-06T07:53:49.484Z,99.70
2023-03-06T07:56:35.236Z,99.28
2023-03-06T07:59:20.028Z,98.89
2023-03-06T08:02:04.954Z,98.59
2023-03-06T08:04:54.999Z,96.94
2023-03-06T08:07:39.751Z,97.56
2023-03-06T08:10:24.628Z,97.16
2023-03-06T08:13:18.766Z,98.59
2023-03-06T08:16:06.262Z,98.89
2023-03-06T08:18:53.654Z,98.60
2023-03-06T08:24:41.874Z,96.22
2023-03-06T08:27:25.355Z,95.25
2023-03-06T08:30:11.045Z,95.92
2023-03-06T08:32:54.632Z,94.74
2023-03-06T08:35:38.180Z,93.12
2023-03-06T08:46:30.844Z,94.54
2023-03-06T08:49:18.711Z,95.23
2023-03-06T08:52:03.440Z,95.23
2023-03-06T08:54:48.901Z,95.58
2023-03-06T08:57:33.818Z,94.79
2023-03-06T09:00:19.303Z,92.97
2023-03-06T09:03:05.291Z,92.29
2023-03-06T09:05:52.832Z,93.64
2023-03-06T09:08:38.067Z,92.76
2023-03-06T09:11:27.125Z,92.30
2023-03-06T09:14:15.714Z,91.80
2023-03-06T09:20:01.322Z,93.75
2023-03-06T10:31:35.237Z,86.93
2023-03-06T15:28:47.548Z,72.75
2023-03-06T15:37:05.148Z,71.86
2023-03-06T15:40:09.541Z,71.72
2023-03-06T15:42:54.573Z,72.19
2023-03-06T15:46:11.943Z,71.50
2023-03-06T15:49:14.837Z,72.68
2023-03-06T15:52:08.727Z,72.55
2023-03-06T18:51:15.973Z,81.10
2023-03-06T19:23:02.092Z,79.65
2023-03-06T19:25:59.550Z,80.86
2023-03-06T19:28:43.693Z,80.02
2023-03-06T19:31:28.786Z,79.27
2023-03-06T19:34:12.596Z,79.36
2023-03-06T19:36:56.250Z,79.83
2023-03-06T19:39:39.797Z,78.75
2023-03-06T19:42:23.527Z,78.71
2023-03-06T19:45:08.241Z,78.62
2023-03-06T19:47:55.474Z,78.38
2023-03-06T19:50:40.533Z,77.81
2023-03-06T19:53:24.272Z,80.75
2023-03-06T19:56:15.896Z,81.23
2023-03-06T19:59:00.346Z,81.11
2023-03-06T20:01:45.816Z,80.46
2023-03-06T20:04:34.677Z,80.44
2023-03-06T20:07:19.205Z,80.16
2023-03-06T20:10:03.723Z,80.36
2023-03-06T20:12:47.616Z,80.55
2023-03-06T20:15:31.458Z,80.23
2023-03-06T20:18:15.873Z,79.49
2023-03-06T20:21:02.775Z,79.44
2023-03-06T20:23:46.425Z,80.94
2023-03-06T20:26:31.648Z,82.08
2023-03-06T20:29:15.903Z,82.10
2023-03-06T20:31:59.561Z,81.33
2023-03-06T20:34:43.956Z,81.63
2023-03-06T20:37:27.821Z,81.93
2023-03-06T20:40:12.494Z,82.49
2023-03-06T20:42:56.217Z,81.66
2023-03-06T20:45:39.897Z,82.15
2023-03-06T20:48:23.896Z,81.52
2023-03-06T20:51:22.897Z,81.90
2023-03-06T20:54:13.799Z,81.61
2023-03-06T20:56:58.031Z,81.66
2023-03-06T20:59:41.624Z,81.50
2023-03-06T21:02:25.508Z,81.43
2023-03-06T21:05:11.912Z,82.01
2023-03-06T21:07:55.952Z,80.90
2023-03-06T21:10:39.785Z,80.85
2023-03-06T21:13:23.313Z,80.52
2023-03-06T21:16:13.699Z,81.02
2023-03-06T21:18:59.667Z,81.04
2023-03-06T21:21:43.308Z,80.90
2023-03-06T21:24:26.997Z,80.76
2023-03-06T21:27:10.609Z,81.61
2023-03-06T21:29:54.320Z,82.31
2023-03-06T21:32:38.007Z,82.53
2023-03-06T21:35:22.428Z,82.70
2023-03-06T21:38:06.765Z,83.05
2023-03-06T21:40:50.488Z,82.91
2023-03-06T21:43:34.013Z,83.71
2023-03-06T21:46:17.769Z,83.92
2023-03-06T21:49:04.349Z,85.09
2023-03-06T21:51:48.058Z,85.34
2023-03-06T21:54:31.683Z,85.51
2023-03-06T21:57:15.347Z,86.19
2023-03-06T21:59:58.954Z,87.78
2023-03-06T22:02:42.486Z,86.63
2023-03-06T22:05:26.273Z,87.21
2023-03-06T22:08:09.845Z,86.70
2023-03-06T22:10:53.671Z,87.13
2023-03-06T22:13:38.488Z,86.64
2023-03-06T22:16:22.183Z,87.43
2023-03-06T22:19:06.239Z,87.70
2023-03-06T22:21:50.206Z,87.89
2023-03-06T22:24:33.720Z,87.21
2023-03-06T22:27:17.568Z,87.39
2023-03-06T22:30:01.230Z,86.99
2023-03-06T22:32:44.984Z,86.72
2023-03-06T22:35:28.672Z,85.67
2023-03-06T22:38:12.798Z,85.94
2023-03-06T22:41:00.005Z,85.91
2023-03-06T22:43:44.587Z,85.29
2023-03-06T22:46:29.404Z,84.12
2023-03-06T22:49:15.929Z,83.01
2023-03-06T22:51:59.564Z,82.53
2023-03-06T22:54:43.498Z,82.91
2023-03-06T22:57:27.092Z,82.26
2023-03-06T23:00:11.824Z,81.78
2023-03-06T23:02:55.335Z,80.60
2023-03-06T23:05:42.474Z,80.85
2023-03-06T23:08:26.512Z,80.50
2023-03-06T23:11:15.063Z,81.93
2023-03-06T23:14:19.471Z,81.40
2023-03-06T23:17:21.960Z,83.11
2023-03-06T23:20:24.014Z,82.29
2023-03-06T23:23:26.749Z,81.88
2023-03-06T23:26:14.862Z,82.32
2023-03-06T23:28:59.120Z,81.63
2023-03-06T23:31:42.775Z,81.90
2023-03-06T23:34:26.287Z,82.52
2023-03-06T23:37:09.874Z,82.70
2023-03-06T23:39:53.565Z,83.54
2023-03-06T23:42:37.129Z,83.32
2023-03-06T23:45:21.117Z,84.60
2023-03-06T23:48:08.004Z,85.99
2023-03-06T23:50:51.741Z,85.72
2023-03-06T23:53:35.754Z,86.59
2023-03-06T23:56:19.260Z,87.70
2023-03-06T23:59:03.031Z,88.14
